sensor_id;sensor_type;location;lat;lon;timestamp;P1;durP1;ratioP1;P2;durP2;ratioP2
4078;SDS011;2054;47.858;11.156;2023-06-05T02:45:50;9.25;;;5.70;;
4078;SDS011;2054;47.858;11.156;2023-06-05T02:48:19;9.48;;;5.70;;
4078;SDS011;2054;47.858;11.156;2023-06-05T02:50:48;8.75;;;5.75;;
4078;SDS011;2054;47.858;11.156;2023-06-05T02:53:15;8.38;;;5.68;;
4078;SDS011;2054;47.858;11.156;2023-06-05T02:55:43;9.15;;;5.85;;
4078;SDS011;2054;47.858;11.156;2023-06-05T02:58:11;8.80;;;5.72;;
4078;SDS011;2054;47.858;11.156;2023-06-05T03:00:38;8.95;;;5.53;;
4078;SDS011;2054;47.858;11.156;2023-06-05T03:03:08;10.52;;;6.20;;
4078;SDS011;2054;47.858;11.156;2023-06-05T03:05:36;7.28;;;5.70;;
4078;SDS011;2054;47.858;11.156;2023-06-05T03:08:05;7.40;;;5.63;;
4078;SDS011;2054;47.858;11.156;2023-06-05T03:10:33;8.45;;;5.65;;
4078;SDS011;2054;47.858;11.156;2023-06-05T03:13:00;6.75;;;5.40;;
4078;SDS011;2054;47.858;11.156;2023-06-05T03:15:28;8.80;;;5.53;;
4078;SDS011;2054;47.858;11.156;2023-06-05T03:17:55;8.18;;;5.65;;
4078;SDS011;2054;47.858;11.156;2023-06-05T03:20:24;9.80;;;5.78;;
4078;SDS011;2054;47.858;11.156;2023-06-05T03:22:51;8.93;;;6.25;;
4078;SDS011;2054;47.858;11.156;2023-06-05T03:25:18;7.25;;;5.28;;
4078;SDS011;2054;47.858;11.156;2023-06-05T03:27:46;7.72;;;5.20;;
4078;SDS011;2054;47.858;11.156;2023-06-05T03:30:13;6.65;;;5.28;;
4078;SDS011;2054;47.858;11.156;2023-06-05T03:32:41;9.77;;;5.40;;
4078;SDS011;2054;47.858;11.156;2023-06-05T03:35:09;8.82;;;5.88;;
4078;SDS011;2054;47.858;11.156;2023-06-05T03:37:38;11.15;;;5.85;;
4078;SDS011;2054;47.858;11.156;2023-06-05T03:40:05;9.48;;;5.68;;
4078;SDS011;2054;47.858;11.156;2023-06-05T03:42:33;7.50;;;5.13;;
4078;SDS011;2054;47.858;11.156;2023-06-05T03:45:01;9.63;;;5.90;;
4078;SDS011;2054;47.858;11.156;2023-06-05T03:47:28;7.60;;;5.50;;
4078;SDS011;2054;47.858;11.156;2023-06-05T03:49:56;11.50;;;5.90;;
4078;SDS011;2054;47.858;11.156;2023-06-05T03:52:25;9.80;;;5.95;;
4078;SDS011;2054;47.858;11.156;2023-06-05T03:54:54;9.57;;;6.30;;
4078;SDS011;2054;47.858;11.156;2023-06-05T03:57:22;8.75;;;6.22;;
4078;SDS011;2054;47.858;11.156;2023-06-05T03:59:49;7.80;;;5.50;;
4078;SDS011;2054;47.858;11.156;2023-06-05T04:02:16;9.30;;;5.85;;
4078;SDS011;2054;47.858;11.156;2023-06-05T04:04:44;8.95;;;5.85;;
4078;SDS011;2054;47.858;11.156;2023-06-05T04:07:11;8.82;;;6.25;;
4078;SDS011;2054;47.858;11.156;2023-06-05T04:09:38;7.63;;;5.80;;
4078;SDS011;2054;47.858;11.156;2023-06-05T04:12:07;8.63;;;5.22;;
4078;SDS011;2054;47.858;11.156;2023-06-05T04:14:35;10.73;;;5.80;;
4078;SDS011;2054;47.858;11.156;2023-06-05T04:17:03;11.00;;;6.40;;
4078;SDS011;2054;47.858;11.156;2023-06-05T04:19:31;10.02;;;5.63;;
4078;SDS011;2054;47.858;11.156;2023-06-05T04:21:58;8.00;;;5.88;;
4078;SDS011;2054;47.858;11.156;2023-06-05T04:24:25;8.68;;;6.10;;
4078;SDS011;2054;47.858;11.156;2023-06-05T04:26:54;8.63;;;6.53;;
4078;SDS011;2054;47.858;11.156;2023-06-05T04:29:23;9.18;;;6.30;;
4078;SDS011;2054;47.858;11.156;2023-06-05T04:31:50;8.93;;;6.88;;
4078;SDS011;2054;47.858;11.156;2023-06-05T04:34:17;11.02;;;6.10;;
4078;SDS011;2054;47.858;11.156;2023-06-05T04:36:45;9.00;;;6.43;;
4078;SDS011;2054;47.858;11.156;2023-06-05T04:39:15;10.45;;;6.63;;
4078;SDS011;2054;47.858;11.156;2023-06-05T04:41:43;9.80;;;5.95;;
4078;SDS011;2054;47.858;11.156;2023-06-05T04:44:11;11.07;;;5.70;;
4078;SDS011;2054;47.858;11.156;2023-06-05T04:46:43;8.73;;;5.97;;
4078;SDS011;2054;47.858;11.156;2023-06-05T04:49:10;7.95;;;5.75;;
4078;SDS011;2054;47.858;11.156;2023-06-05T04:51:38;8.68;;;6.13;;
4078;SDS011;2054;47.858;11.156;2023-06-05T04:54:06;11.20;;;6.28;;
4078;SDS011;2054;47.858;11.156;2023-06-05T04:56:33;9.13;;;5.82;;
4078;SDS011;2054;47.858;11.156;2023-06-05T04:59:00;9.18;;;6.60;;
4078;SDS011;2054;47.858;11.156;2023-06-05T05:01:28;9.27;;;6.78;;
4078;SDS011;2054;47.858;11.156;2023-06-05T05:03:57;13.57;;;6.13;;
4078;SDS011;2054;47.858;11.156;2023-06-05T05:06:24;10.75;;;6.30;;
4078;SDS011;2054;47.858;11.156;2023-06-05T05:08:52;9.68;;;6.60;;
4078;SDS011;2054;47.858;11.156;2023-06-05T05:11:19;11.65;;;6.28;;
4078;SDS011;2054;47.858;11.156;2023-06-05T05:13:47;10.52;;;6.72;;
4078;SDS011;2054;47.858;11.156;2023-06-05T05:16:14;12.73;;;7.05;;
4078;SDS011;2054;47.858;11.156;2023-06-05T05:18:42;12.05;;;6.88;;
4078;SDS011;2054;47.858;11.156;2023-06-05T05:21:11;11.38;;;7.10;;
4078;SDS011;2054;47.858;11.156;2023-06-05T05:23:39;10.93;;;6.40;;
4078;SDS011;2054;47.858;11.156;2023-06-05T05:26:06;10.25;;;7.57;;
4078;SDS011;2054;47.858;11.156;2023-06-05T05:28:34;12.60;;;7.75;;
4078;SDS011;2054;47.858;11.156;2023-06-05T05:31:01;9.30;;;7.47;;
4078;SDS011;2054;47.858;11.156;2023-06-05T05:33:29;10.98;;;7.30;;
4078;SDS011;2054;47.858;11.156;2023-06-05T05:35:56;9.77;;;7.57;;
4078;SDS011;2054;47.858;11.156;2023-06-05T05:38:26;11.68;;;7.35;;
4078;SDS011;2054;47.858;11.156;2023-06-05T05:40:53;9.50;;;7.18;;
4078;SDS011;2054;47.858;11.156;2023-06-05T05:43:20;15.45;;;8.20;;
4078;SDS011;2054;47.858;11.156;2023-06-05T05:45:48;11.85;;;7.40;;
4078;SDS011;2054;47.858;11.156;2023-06-05T05:48:15;10.30;;;7.25;;
4078;SDS011;2054;47.858;11.156;2023-06-05T05:50:42;10.75;;;7.43;;
4078;SDS011;2054;47.858;11.156;2023-06-05T05:53:10;10.20;;;8.00;;
4078;SDS011;2054;47.858;11.156;2023-06-05T05:55:39;9.63;;;7.65;;
4078;SDS011;2054;47.858;11.156;2023-06-05T05:58:06;12.32;;;7.53;;
4078;SDS011;2054;47.858;11.156;2023-06-05T06:00:33;10.43;;;7.38;;
4078;SDS011;2054;47.858;11.156;2023-06-05T06:03:01;13.43;;;8.20;;
4078;SDS011;2054;47.858;11.156;2023-06-05T06:05:28;9.00;;;7.43;;
4078;SDS011;2054;47.858;11.156;2023-06-05T06:07:56;12.48;;;8.02;;
4078;SDS011;2054;47.858;11.156;2023-06-05T06:10:23;10.93;;;7.18;;
4078;SDS011;2054;47.858;11.156;2023-06-05T06:12:53;11.43;;;6.95;;
4078;SDS011;2054;47.858;11.156;2023-06-05T06:15:21;10.18;;;7.90;;
4078;SDS011;2054;47.858;11.156;2023-06-05T06:17:48;9.40;;;7.05;;
4078;SDS011;2054;47.858;11.156;2023-06-05T06:20:16;10.35;;;7.75;;
4078;SDS011;2054;47.858;11.156;2023-06-05T06:22:43;10.80;;;7.28;;
4078;SDS011;2054;47.858;11.156;2023-06-05T06:25:11;9.52;;;6.85;;
4078;SDS011;2054;47.858;11.156;2023-06-05T06:27:39;10.80;;;7.45;;
4078;SDS011;2054;47.858;11.156;2023-06-05T06:30:09;11.18;;;7.35;;
4078;SDS011;2054;47.858;11.156;2023-06-05T06:32:37;10.20;;;7.60;;
4078;SDS011;2054;47.858;11.156;2023-06-05T06:35:05;9.05;;;7.60;;
4078;SDS011;2054;47.858;11.156;2023-06-05T06:37:32;13.40;;;7.63;;
4078;SDS011;2054;47.858;11.156;2023-06-05T06:39:59;12.07;;;7.68;;
4078;SDS011;2054;47.858;11.156;2023-06-05T06:42:28;11.30;;;7.53;;
4078;SDS011;2054;47.858;11.156;2023-06-05T06:44:55;10.88;;;7.30;;
4078;SDS011;2054;47.858;11.156;2023-06-05T06:47:24;11.73;;;6.82;;
4078;SDS011;2054;47.858;11.156;2023-06-05T06:49:52;10.70;;;7.20;;
4078;SDS011;2054;47.858;11.156;2023-06-05T06:52:20;9.57;;;6.85;;
4078;SDS011;2054;47.858;11.156;2023-06-05T06:54:47;8.07;;;7.28;;
4078;SDS011;2054;47.858;11.156;2023-06-05T06:57:14;12.07;;;6.95;;
4078;SDS011;2054;47.858;11.156;2023-06-05T06:59:42;10.45;;;7.55;;
4078;SDS011;2054;47.858;11.156;2023-06-05T07:02:11;9.02;;;7.05;;
4078;SDS011;2054;47.858;11.156;2023-06-05T07:04:40;8.70;;;7.28;;
4078;SDS011;2054;47.858;11.156;2023-06-05T07:07:08;9.50;;;7.50;;
4078;SDS011;2054;47.858;11.156;2023-06-05T07:09:37;8.88;;;7.53;;
4078;SDS011;2054;47.858;11.156;2023-06-05T07:12:05;12.13;;;7.53;;
4078;SDS011;2054;47.858;11.156;2023-06-05T07:14:32;11.32;;;7.55;;
4078;SDS011;2054;47.858;11.156;2023-06-05T07:16:59;8.38;;;7.18;;
4078;SDS011;2054;47.858;11.156;2023-06-05T07:19:27;14.90;;;8.38;;
4078;SDS011;2054;47.858;11.156;2023-06-05T07:21:56;8.93;;;7.47;;
4078;SDS011;2054;47.858;11.156;2023-06-05T07:24:24;13.70;;;8.60;;
4078;SDS011;2054;47.858;11.156;2023-06-05T07:26:51;10.23;;;8.15;;
4078;SDS011;2054;47.858;11.156;2023-06-05T07:29:19;10.30;;;8.02;;
4078;SDS011;2054;47.858;11.156;2023-06-05T07:31:46;11.20;;;8.25;;
4078;SDS011;2054;47.858;11.156;2023-06-05T07:34:14;9.70;;;8.18;;
4078;SDS011;2054;47.858;11.156;2023-06-05T07:36:44;9.70;;;7.95;;
4078;SDS011;2054;47.858;11.156;2023-06-05T07:39:13;10.98;;;8.60;;
4078;SDS011;2054;47.858;11.156;2023-06-05T07:41:40;9.63;;;7.95;;
4078;SDS011;2054;47.858;11.156;2023-06-05T07:44:08;11.45;;;8.65;;
4078;SDS011;2054;47.858;11.156;2023-06-05T07:46:35;11.65;;;7.93;;
4078;SDS011;2054;47.858;11.156;2023-06-05T07:49:03;10.65;;;7.97;;
4078;SDS011;2054;47.858;11.156;2023-06-05T07:51:30;16.00;;;8.27;;
4078;SDS011;2054;47.858;11.156;2023-06-05T07:54:00;11.02;;;9.00;;
4078;SDS011;2054;47.858;11.156;2023-06-05T07:56:29;8.45;;;7.40;;
4078;SDS011;2054;47.858;11.156;2023-06-05T07:58:58;8.80;;;7.85;;
4078;SDS011;2054;47.858;11.156;2023-06-05T08:01:25;9.70;;;8.00;;
4078;SDS011;2054;47.858;11.156;2023-06-05T08:03:53;10.30;;;7.60;;
4078;SDS011;2054;47.858;11.156;2023-06-05T08:06:20;11.98;;;8.15;;
4078;SDS011;2054;47.858;11.156;2023-06-05T08:08:49;11.90;;;8.00;;
4078;SDS011;2054;47.858;11.156;2023-06-05T08:11:17;9.05;;;8.15;;
4078;SDS011;2054;47.858;11.156;2023-06-05T08:13:46;11.75;;;8.30;;
4078;SDS011;2054;47.858;11.156;2023-06-05T08:16:14;9.75;;;8.75;;
4078;SDS011;2054;47.858;11.156;2023-06-05T08:18:41;9.48;;;8.25;;
4078;SDS011;2054;47.858;11.156;2023-06-05T08:21:08;9.05;;;7.47;;
4078;SDS011;2054;47.858;11.156;2023-06-05T08:23:36;10.68;;;9.18;;
4078;SDS011;2054;47.858;11.156;2023-06-05T08:26:03;13.30;;;9.27;;
4078;SDS011;2054;47.858;11.156;2023-06-05T08:28:37;14.48;;;9.15;;
4078;SDS011;2054;47.858;11.156;2023-06-05T08:31:06;12.60;;;9.93;;
4078;SDS011;2054;47.858;11.156;2023-06-05T08:33:33;12.65;;;9.65;;
4078;SDS011;2054;47.858;11.156;2023-06-05T08:36:01;10.30;;;9.13;;
4078;SDS011;2054;47.858;11.156;2023-06-05T08:38:28;10.52;;;9.43;;
4078;SDS011;2054;47.858;11.156;2023-06-05T08:40:56;11.52;;;9.27;;
4078;SDS011;2054;47.858;11.156;2023-06-05T08:43:23;12.00;;;8.50;;
4078;SDS011;2054;47.858;11.156;2023-06-05T08:45:51;10.85;;;7.65;;
4078;SDS011;2054;47.858;11.156;2023-06-05T08:48:21;8.63;;;6.43;;
4078;SDS011;2054;47.858;11.156;2023-06-05T08:50:49;8.18;;;7.32;;
4078;SDS011;2054;47.858;11.156;2023-06-05T08:53:17;9.02;;;8.15;;
4078;SDS011;2054;47.858;11.156;2023-06-05T08:55:44;7.28;;;6.57;;
4078;SDS011;2054;47.858;11.156;2023-06-05T08:58:12;9.52;;;8.10;;
4078;SDS011;2054;47.858;11.156;2023-06-05T09:00:40;8.80;;;7.60;;
4078;SDS011;2054;47.858;11.156;2023-06-05T09:03:10;8.55;;;7.72;;
4078;SDS011;2054;47.858;11.156;2023-06-05T09:05:41;7.68;;;6.72;;
4078;SDS011;2054;47.858;11.156;2023-06-05T09:08:08;8.38;;;7.18;;
4078;SDS011;2054;47.858;11.156;2023-06-05T09:10:36;7.53;;;6.30;;
4078;SDS011;2054;47.858;11.156;2023-06-05T09:13:03;7.38;;;6.38;;
4078;SDS011;2054;47.858;11.156;2023-06-05T09:15:32;9.35;;;7.30;;
4078;SDS011;2054;47.858;11.156;2023-06-05T09:18:03;8.23;;;6.13;;
4078;SDS011;2054;47.858;11.156;2023-06-05T09:20:33;7.93;;;6.95;;
4078;SDS011;2054;47.858;11.156;2023-06-05T09:23:02;9.15;;;6.63;;
4078;SDS011;2054;47.858;11.156;2023-06-05T09:25:46;8.63;;;6.22;;
4078;SDS011;2054;47.858;11.156;2023-06-05T09:28:14;10.05;;;6.00;;
4078;SDS011;2054;47.858;11.156;2023-06-05T09:30:54;8.10;;;5.55;;
4078;SDS011;2054;47.858;11.156;2023-06-05T09:33:22;7.78;;;5.90;;
4078;SDS011;2054;47.858;11.156;2023-06-05T09:36:06;7.50;;;6.70;;
4078;SDS011;2054;47.858;11.156;2023-06-05T09:38:36;9.55;;;6.38;;
4078;SDS011;2054;47.858;11.156;2023-06-05T09:41:04;10.77;;;5.72;;
4078;SDS011;2054;47.858;11.156;2023-06-05T09:43:32;6.32;;;5.68;;
4078;SDS011;2054;47.858;11.156;2023-06-05T09:46:05;6.93;;;6.10;;
4078;SDS011;2054;47.858;11.156;2023-06-05T09:48:33;8.07;;;5.75;;
4078;SDS011;2054;47.858;11.156;2023-06-05T09:51:07;6.65;;;5.88;;
4078;SDS011;2054;47.858;11.156;2023-06-05T09:53:36;5.63;;;5.13;;
4078;SDS011;2054;47.858;11.156;2023-06-05T09:56:05;6.18;;;5.45;;
4078;SDS011;2054;47.858;11.156;2023-06-05T09:58:32;8.13;;;5.70;;
4078;SDS011;2054;47.858;11.156;2023-06-05T10:00:59;5.60;;;5.00;;
4078;SDS011;2054;47.858;11.156;2023-06-05T10:03:28;5.60;;;5.00;;
4078;SDS011;2054;47.858;11.156;2023-06-05T10:05:55;6.50;;;5.65;;
4078;SDS011;2054;47.858;11.156;2023-06-05T10:08:23;6.80;;;5.07;;
4078;SDS011;2054;47.858;11.156;2023-06-05T10:10:51;7.07;;;5.95;;
4078;SDS011;2054;47.858;11.156;2023-06-05T10:13:19;6.45;;;5.45;;
4078;SDS011;2054;47.858;11.156;2023-06-05T10:15:46;6.65;;;5.63;;
4078;SDS011;2054;47.858;11.156;2023-06-05T10:18:14;9.95;;;5.32;;
4078;SDS011;2054;47.858;11.156;2023-06-05T10:20:42;7.72;;;5.95;;
4078;SDS011;2054;47.858;11.156;2023-06-05T10:23:09;8.90;;;6.13;;
4078;SDS011;2054;47.858;11.156;2023-06-05T10:25:37;6.55;;;5.28;;
4078;SDS011;2054;47.858;11.156;2023-06-05T10:28:09;7.57;;;5.38;;
4078;SDS011;2054;47.858;11.156;2023-06-05T10:33:28;7.68;;;5.70;;
4078;SDS011;2054;47.858;11.156;2023-06-05T10:35:59;9.15;;;5.22;;
4078;SDS011;2054;47.858;11.156;2023-06-05T10:38:30;8.57;;;5.90;;
4078;SDS011;2054;47.858;11.156;2023-06-05T10:40:58;7.13;;;5.80;;
4078;SDS011;2054;47.858;11.156;2023-06-05T10:43:29;7.00;;;5.50;;
4078;SDS011;2054;47.858;11.156;2023-06-05T10:45:57;8.48;;;6.10;;
4078;SDS011;2054;47.858;11.156;2023-06-05T10:53:56;7.18;;;5.43;;
4078;SDS011;2054;47.858;11.156;2023-06-05T10:59:12;6.13;;;5.45;;
4078;SDS011;2054;47.858;11.156;2023-06-05T11:01:39;7.13;;;5.32;;
4078;SDS011;2054;47.858;11.156;2023-06-05T11:04:07;6.95;;;5.90;;
4078;SDS011;2054;47.858;11.156;2023-06-05T11:06:34;7.18;;;5.63;;
4078;SDS011;2054;47.858;11.156;2023-06-05T11:09:07;7.05;;;6.13;;
4078;SDS011;2054;47.858;11.156;2023-06-05T11:11:54;7.68;;;5.30;;
4078;SDS011;2054;47.858;11.156;2023-06-05T11:14:23;6.40;;;4.80;;
4078;SDS011;2054;47.858;11.156;2023-06-05T11:16:50;6.10;;;5.50;;
4078;SDS011;2054;47.858;11.156;2023-06-05T11:19:36;8.80;;;5.40;;
4078;SDS011;2054;47.858;11.156;2023-06-05T11:22:04;7.20;;;5.38;;
4078;SDS011;2054;47.858;11.156;2023-06-05T11:24:33;6.25;;;5.25;;
4078;SDS011;2054;47.858;11.156;2023-06-05T11:27:01;6.40;;;5.10;;
4078;SDS011;2054;47.858;11.156;2023-06-05T11:29:30;6.93;;;5.00;;
4078;SDS011;2054;47.858;11.156;2023-06-05T11:31:58;5.60;;;4.78;;
4078;SDS011;2054;47.858;11.156;2023-06-05T11:34:25;5.28;;;4.78;;
4078;SDS011;2054;47.858;11.156;2023-06-05T11:36:54;6.10;;;5.32;;
4078;SDS011;2054;47.858;11.156;2023-06-05T11:39:23;5.72;;;5.05;;
4078;SDS011;2054;47.858;11.156;2023-06-05T11:41:55;8.52;;;5.30;;
4078;SDS011;2054;47.858;11.156;2023-06-05T11:44:33;7.55;;;5.05;;
4078;SDS011;2054;47.858;11.156;2023-06-05T11:47:01;8.40;;;5.70;;
4078;SDS011;2054;47.858;11.156;2023-06-05T11:49:28;7.18;;;5.10;;
4078;SDS011;2054;47.858;11.156;2023-06-05T11:51:56;6.93;;;5.38;;
4078;SDS011;2054;47.858;11.156;2023-06-05T11:54:24;7.72;;;5.13;;
4078;SDS011;2054;47.858;11.156;2023-06-05T11:56:55;6.45;;;5.43;;
4078;SDS011;2054;47.858;11.156;2023-06-05T11:59:23;6.40;;;5.28;;
4078;SDS011;2054;47.858;11.156;2023-06-05T12:01:52;6.57;;;5.43;;
4078;SDS011;2054;47.858;11.156;2023-06-05T12:04:19;6.85;;;5.22;;
4078;SDS011;2054;47.858;11.156;2023-06-05T12:06:48;7.15;;;5.10;;
4078;SDS011;2054;47.858;11.156;2023-06-05T12:09:16;10.60;;;5.25;;
4078;SDS011;2054;47.858;11.156;2023-06-05T12:11:44;8.35;;;5.35;;
4078;SDS011;2054;47.858;11.156;2023-06-05T12:14:11;10.73;;;5.47;;
4078;SDS011;2054;47.858;11.156;2023-06-05T12:16:40;6.43;;;5.68;;
4078;SDS011;2054;47.858;11.156;2023-06-05T12:19:13;7.85;;;6.00;;
4078;SDS011;2054;47.858;11.156;2023-06-05T12:21:42;7.82;;;5.25;;
4078;SDS011;2054;47.858;11.156;2023-06-05T12:24:09;10.07;;;5.22;;
4078;SDS011;2054;47.858;11.156;2023-06-05T12:26:49;9.13;;;5.68;;
4078;SDS011;2054;47.858;11.156;2023-06-05T12:29:18;10.57;;;5.72;;
4078;SDS011;2054;47.858;11.156;2023-06-05T12:31:47;6.60;;;5.22;;
4078;SDS011;2054;47.858;11.156;2023-06-05T12:34:16;7.47;;;5.60;;
4078;SDS011;2054;47.858;11.156;2023-06-05T12:36:43;7.53;;;5.35;;
4078;SDS011;2054;47.858;11.156;2023-06-05T12:39:13;6.18;;;5.57;;
4078;SDS011;2054;47.858;11.156;2023-06-05T12:41:41;6.07;;;5.40;;
4078;SDS011;2054;47.858;11.156;2023-06-05T12:44:09;6.80;;;5.50;;
4078;SDS011;2054;47.858;11.156;2023-06-05T12:46:37;9.63;;;5.70;;
4078;SDS011;2054;47.858;11.156;2023-06-05T12:49:05;10.10;;;5.45;;
4078;SDS011;2054;47.858;11.156;2023-06-05T12:51:34;11.82;;;5.70;;
4078;SDS011;2054;47.858;11.156;2023-06-05T12:54:01;13.70;;;6.00;;
4078;SDS011;2054;47.858;11.156;2023-06-05T12:56:28;8.13;;;5.35;;
4078;SDS011;2054;47.858;11.156;2023-06-05T12:58:59;8.63;;;5.93;;
4078;SDS011;2054;47.858;11.156;2023-06-05T13:01:27;10.18;;;5.80;;
4078;SDS011;2054;47.858;11.156;2023-06-05T13:03:55;9.85;;;5.80;;
4078;SDS011;2054;47.858;11.156;2023-06-05T13:06:22;7.13;;;5.93;;
4078;SDS011;2054;47.858;11.156;2023-06-05T13:08:51;6.60;;;5.45;;
4078;SDS011;2054;47.858;11.156;2023-06-05T13:11:19;8.65;;;6.30;;
4078;SDS011;2054;47.858;11.156;2023-06-05T13:13:46;9.10;;;5.30;;
4078;SDS011;2054;47.858;11.156;2023-06-05T13:16:13;6.63;;;5.35;;
4078;SDS011;2054;47.858;11.156;2023-06-05T13:18:40;7.95;;;5.70;;
4078;SDS011;2054;47.858;11.156;2023-06-05T13:21:08;7.85;;;5.28;;
4078;SDS011;2054;47.858;11.156;2023-06-05T13:23:35;6.35;;;5.43;;
4078;SDS011;2054;47.858;11.156;2023-06-05T13:26:04;7.07;;;6.35;;
4078;SDS011;2054;47.858;11.156;2023-06-05T13:28:31;7.65;;;6.10;;
4078;SDS011;2054;47.858;11.156;2023-06-05T13:30:59;8.23;;;5.75;;
4078;SDS011;2054;47.858;11.156;2023-06-05T13:33:28;6.97;;;6.22;;
4078;SDS011;2054;47.858;11.156;2023-06-05T13:35:55;7.28;;;6.20;;
4078;SDS011;2054;47.858;11.156;2023-06-05T13:38:22;6.40;;;5.80;;
4078;SDS011;2054;47.858;11.156;2023-06-05T13:40:49;6.75;;;6.10;;
4078;SDS011;2054;47.858;11.156;2023-06-05T13:43:19;6.20;;;5.60;;
4078;SDS011;2054;47.858;11.156;2023-06-05T13:45:47;6.47;;;5.80;;
4078;SDS011;2054;47.858;11.156;2023-06-05T13:48:15;7.30;;;5.93;;
4078;SDS011;2054;47.858;11.156;2023-06-05T13:50:43;6.57;;;5.97;;
4078;SDS011;2054;47.858;11.156;2023-06-05T13:53:10;9.35;;;6.70;;
4078;SDS011;2054;47.858;11.156;2023-06-05T13:55:38;7.70;;;6.70;;
4078;SDS011;2054;47.858;11.156;2023-06-05T13:58:06;7.15;;;6.35;;
4078;SDS011;2054;47.858;11.156;2023-06-05T14:03:47;7.15;;;5.97;;
4078;SDS011;2054;47.858;11.156;2023-06-05T14:06:15;7.53;;;6.07;;
4078;SDS011;2054;47.858;11.156;2023-06-05T14:08:43;11.77;;;6.22;;
4078;SDS011;2054;47.858;11.156;2023-06-05T14:11:10;8.52;;;6.18;;
4078;SDS011;2054;47.858;11.156;2023-06-05T14:13:37;8.30;;;6.55;;
4078;SDS011;2054;47.858;11.156;2023-06-05T14:16:08;7.22;;;5.75;;
4078;SDS011;2054;47.858;11.156;2023-06-05T14:18:36;9.77;;;6.68;;
4078;SDS011;2054;47.858;11.156;2023-06-05T14:21:05;9.57;;;7.00;;
4078;SDS011;2054;47.858;11.156;2023-06-05T14:23:32;12.15;;;7.13;;
4078;SDS011;2054;47.858;11.156;2023-06-05T14:26:00;10.90;;;7.50;;
4078;SDS011;2054;47.858;11.156;2023-06-05T14:28:27;9.30;;;6.70;;
4078;SDS011;2054;47.858;11.156;2023-06-05T14:30:54;11.02;;;6.95;;
4078;SDS011;2054;47.858;11.156;2023-06-05T14:33:22;8.93;;;7.68;;
4078;SDS011;2054;47.858;11.156;2023-06-05T14:35:50;8.73;;;7.13;;
4078;SDS011;2054;47.858;11.156;2023-06-05T14:38:18;8.90;;;7.13;;
4078;SDS011;2054;47.858;11.156;2023-06-05T14:40:46;9.93;;;6.78;;
4078;SDS011;2054;47.858;11.156;2023-06-05T14:43:15;7.38;;;6.47;;
4078;SDS011;2054;47.858;11.156;2023-06-05T14:45:45;6.72;;;5.82;;
4078;SDS011;2054;47.858;11.156;2023-06-05T14:48:13;8.20;;;6.38;;
4078;SDS011;2054;47.858;11.156;2023-06-05T14:50:40;8.15;;;6.45;;
4078;SDS011;2054;47.858;11.156;2023-06-05T14:53:07;8.70;;;6.57;;
4078;SDS011;2054;47.858;11.156;2023-06-05T14:55:37;7.47;;;6.68;;
4078;SDS011;2054;47.858;11.156;2023-06-05T14:58:04;8.25;;;6.72;;
4078;SDS011;2054;47.858;11.156;2023-06-05T15:00:35;6.90;;;6.20;;
4078;SDS011;2054;47.858;11.156;2023-06-05T15:03:02;6.93;;;6.00;;
4078;SDS011;2054;47.858;11.156;2023-06-05T15:05:30;7.75;;;6.75;;
4078;SDS011;2054;47.858;11.156;2023-06-05T15:07:57;6.78;;;5.90;;
4078;SDS011;2054;47.858;11.156;2023-06-05T15:10:25;6.80;;;5.50;;
4078;SDS011;2054;47.858;11.156;2023-06-05T15:12:54;10.82;;;5.57;;
4078;SDS011;2054;47.858;11.156;2023-06-05T15:15:22;8.40;;;5.28;;
4078;SDS011;2054;47.858;11.156;2023-06-05T15:17:50;7.07;;;5.22;;
4078;SDS011;2054;47.858;11.156;2023-06-05T15:20:18;6.93;;;4.85;;
4078;SDS011;2054;47.858;11.156;2023-06-05T15:22:45;5.55;;;5.05;;
4078;SDS011;2054;47.858;11.156;2023-06-05T15:25:13;5.70;;;5.10;;
4078;SDS011;2054;47.858;11.156;2023-06-05T15:27:40;6.10;;;5.50;;
4078;SDS011;2054;47.858;11.156;2023-06-05T15:30:10;6.00;;;4.82;;
4078;SDS011;2054;47.858;11.156;2023-06-05T15:32:37;5.10;;;4.68;;
4078;SDS011;2054;47.858;11.156;2023-06-05T15:35:04;5.95;;;5.20;;
4078;SDS011;2054;47.858;11.156;2023-06-05T15:37:32;5.68;;;5.18;;
4078;SDS011;2054;47.858;11.156;2023-06-05T15:39:59;5.53;;;4.70;;
4078;SDS011;2054;47.858;11.156;2023-06-05T15:42:27;5.40;;;4.80;;
4078;SDS011;2054;47.858;11.156;2023-06-05T15:45:04;9.10;;;5.50;;
4078;SDS011;2054;47.858;11.156;2023-06-05T15:47:33;6.55;;;5.30;;
4078;SDS011;2054;47.858;11.156;2023-06-05T15:50:02;5.93;;;5.38;;
4078;SDS011;2054;47.858;11.156;2023-06-05T15:52:30;6.47;;;5.50;;
4078;SDS011;2054;47.858;11.156;2023-06-05T15:54:58;6.38;;;5.35;;
4078;SDS011;2054;47.858;11.156;2023-06-05T15:57:25;6.15;;;5.30;;
4078;SDS011;2054;47.858;11.156;2023-06-05T15:59:53;6.18;;;5.57;;
4078;SDS011;2054;47.858;11.156;2023-06-05T16:02:20;6.03;;;5.43;;
4078;SDS011;2054;47.858;11.156;2023-06-05T16:04:49;6.60;;;5.90;;
4078;SDS011;2054;47.858;11.156;2023-06-05T16:07:17;6.47;;;5.15;;
4078;SDS011;2054;47.858;11.156;2023-06-05T16:09:44;5.25;;;4.40;;
4078;SDS011;2054;47.858;11.156;2023-06-05T16:12:12;5.80;;;4.57;;
4078;SDS011;2054;47.858;11.156;2023-06-05T16:14:39;5.70;;;5.07;;
4078;SDS011;2054;47.858;11.156;2023-06-05T16:17:06;5.30;;;4.78;;
4078;SDS011;2054;47.858;11.156;2023-06-05T16:19:34;5.50;;;4.65;;
4078;SDS011;2054;47.858;11.156;2023-06-05T16:22:02;5.15;;;4.65;;
4078;SDS011;2054;47.858;11.156;2023-06-05T16:24:30;6.78;;;4.80;;
4078;SDS011;2054;47.858;11.156;2023-06-05T16:26:58;7.22;;;4.45;;
4078;SDS011;2054;47.858;11.156;2023-06-05T16:29:25;8.52;;;6.72;;
4078;SDS011;2054;47.858;11.156;2023-06-05T16:31:53;9.45;;;7.38;;
4078;SDS011;2054;47.858;11.156;2023-06-05T16:34:21;10.32;;;7.15;;
4078;SDS011;2054;47.858;11.156;2023-06-05T16:36:48;9.82;;;7.00;;
4078;SDS011;2054;47.858;11.156;2023-06-05T16:39:17;8.38;;;6.95;;
4078;SDS011;2054;47.858;11.156;2023-06-05T16:41:44;10.32;;;8.20;;
4078;SDS011;2054;47.858;11.156;2023-06-05T16:44:12;10.20;;;7.65;;
4078;SDS011;2054;47.858;11.156;2023-06-05T16:46:39;12.65;;;7.55;;
4078;SDS011;2054;47.858;11.156;2023-06-05T16:49:07;12.10;;;7.70;;
4078;SDS011;2054;47.858;11.156;2023-06-05T16:51:34;10.77;;;6.63;;
4078;SDS011;2054;47.858;11.156;2023-06-05T16:54:02;20.25;;;7.97;;
4078;SDS011;2054;47.858;11.156;2023-06-05T16:56:32;20.63;;;9.20;;
4078;SDS011;2054;47.858;11.156;2023-06-05T16:58:59;33.58;;;11.85;;
4078;SDS011;2054;47.858;11.156;2023-06-05T17:01:27;22.75;;;11.90;;
4078;SDS011;2054;47.858;11.156;2023-06-05T17:03:55;13.52;;;9.68;;
4078;SDS011;2054;47.858;11.156;2023-06-05T17:06:22;10.07;;;6.07;;
4078;SDS011;2054;47.858;11.156;2023-06-05T17:08:49;14.00;;;7.07;;
4078;SDS011;2054;47.858;11.156;2023-06-05T17:11:17;11.48;;;6.38;;
4078;SDS011;2054;47.858;11.156;2023-06-05T17:13:46;10.27;;;6.68;;
4078;SDS011;2054;47.858;11.156;2023-06-05T17:16:13;10.45;;;6.38;;
4078;SDS011;2054;47.858;11.156;2023-06-05T17:18:41;12.48;;;7.32;;
4078;SDS011;2054;47.858;11.156;2023-06-05T17:21:08;12.30;;;7.82;;
4078;SDS011;2054;47.858;11.156;2023-06-05T17:23:36;9.65;;;6.40;;
4078;SDS011;2054;47.858;11.156;2023-06-05T17:26:04;9.90;;;6.75;;
4078;SDS011;2054;47.858;11.156;2023-06-05T17:28:31;13.90;;;8.48;;
4078;SDS011;2054;47.858;11.156;2023-06-05T17:31:00;15.68;;;8.55;;
4078;SDS011;2054;47.858;11.156;2023-06-05T17:33:27;13.27;;;8.50;;
4078;SDS011;2054;47.858;11.156;2023-06-05T17:35:56;14.82;;;9.68;;
4078;SDS011;2054;47.858;11.156;2023-06-05T17:38:24;14.07;;;9.60;;
4078;SDS011;2054;47.858;11.156;2023-06-05T17:40:52;17.25;;;11.32;;
4078;SDS011;2054;47.858;11.156;2023-06-05T17:43:20;13.93;;;10.32;;
4078;SDS011;2054;47.858;11.156;2023-06-05T17:45:47;15.57;;;12.07;;
4078;SDS011;2054;47.858;11.156;2023-06-05T17:48:16;15.63;;;11.25;;
4078;SDS011;2054;47.858;11.156;2023-06-05T17:50:44;14.90;;;12.35;;
4078;SDS011;2054;47.858;11.156;2023-06-05T17:53:12;15.07;;;11.82;;
4078;SDS011;2054;47.858;11.156;2023-06-05T17:55:41;17.25;;;12.25;;
4078;SDS011;2054;47.858;11.156;2023-06-05T17:58:08;13.93;;;10.95;;
4078;SDS011;2054;47.858;11.156;2023-06-05T18:00:36;14.48;;;10.70;;